Sheridan, WY

1:08 AM MDT on October 25, 2014 (GMT -0600)
KWYSHERI2 | Change Station
CLOSE
Current Station
Personal Weather Station
Location: Sheridan, WY
Elevation: 3828 ft
Nearby Weather Stations

Elev 3828 ft 44.81 °N, 106.98 °W | Updated 6 minutes ago

Clear
Clear
35.5 °F
Feels Like 36 °F
N
0.0
Wind Variable Wind from NNE
Gusts 0.0 mph

Today
High -- | Low -- °F
--% Chance of Precip.
Yesterday
High -- | Low -- °F
Precip. -- in
7:36 AM 6:06 PM
New Moon, 2% visible
Pressure 30.12 in
Visibility 10.0 miles
Clouds Clear
Windchill 36 °F
Dew Point 30 °F
Humidity 81%
Rainfall 0.00 in
Snow Depth Not available.
UV 0 out of 12
Pollen 1.60 out of 12
Air Quality Not available.
Flu Activity Sporadic
METAR KSHR 250653Z AUTO 00000KT 10SM CLR 02/M02 A3013 RMK AO2 SLP199 T00221017 402060006 TSNO

More Conditions Fewer Conditions

Pressure 30.12 in
Visibility 10.0 miles
Clouds Clear
Windchill 36 °F
Dew Point 30 °F
Humidity 81%
Rainfall 0.00 in
Snow Depth Not available.
UV 0 out of 12
Pollen 1.60 out of 12
Air Quality Not available.
Flu Activity Sporadic
METAR KSHR 250653Z AUTO 00000KT 10SM CLR 02/M02 A3013 RMK AO2 SLP199 T00221017 402060006 TSNO

More Conditions Fewer Conditions

10-Day Weather Forecast

Almanac

Astronomy

Oct. 25, 2014 Rise Set
Actual Time 7:36 AM MDT 6:06 PM MDT
Civil Twilight 7:06 AM MDT 6:36 PM MDT
Nautical Twilight 6:32 AM MDT 7:10 PM MDT
Astronomical Twilight 5:58 AM MDT 7:44 PM MDT
Moon 9:21 AM MDT 7:28 PM MDT
Length of Visible Light 11h 30m
Length of Day
10h 30m
Tomorrow will be 2m 52s shorter.
New Moon, 2% of the Moon is Illuminated
Today
New Moon
Oct 30
First Quarter
Nov 6
Full
Nov 14
Last Quarter
Nov 22
New

Today's Extremes

State Highs State Lows

Community

WunderPhotos

Upload Photos

1,764,789 photos uploaded!

Nearby

Snow Depth

Station Depth Elevation
Bald Mountain 1 in 9380 ft
Casper Mountain 0 in 7850 ft
Sylvan Lake 0 in 8420 ft
Reno Hill 0 in 8500 ft
Laprele Creek 0 in 8375 ft

Earthquake Activity

City Distance Mag. Time & Date
No recent earthquake activity has been reported nearby.
Minimum magnitude displayed is 2.5.

Coastal Water Temperatures

Place Temperature
No Stations Reporting

Nearby Weather Stations